createdAt,value
2022-12-01T00:01:10.038Z,34.08
2022-12-01T00:03:36.933Z,34.70
2022-12-01T00:06:12.300Z,33.03
2022-12-01T00:08:39.020Z,33.97
2022-12-01T00:11:11.645Z,34.67
2022-12-01T00:13:38.473Z,34.05
2022-12-01T00:16:17.015Z,34.60
2022-12-01T00:18:44.279Z,34.45
2022-12-01T00:21:22.372Z,34.92
2022-12-01T00:23:51.864Z,34.72
2022-12-01T00:26:21.183Z,34.05
2022-12-01T00:28:56.591Z,33.88
2022-12-01T00:31:24.237Z,33.58
2022-12-01T00:33:51.293Z,33.38
2022-12-01T00:36:18.315Z,32.75
2022-12-01T00:38:45.435Z,33.13
2022-12-01T00:41:12.279Z,34.72
2022-12-01T00:43:39.942Z,32.75
2022-12-01T00:46:06.793Z,33.38
2022-12-01T00:48:33.789Z,33.67
2022-12-01T00:51:00.591Z,33.10
2022-12-01T00:53:27.316Z,32.70
2022-12-01T00:55:54.302Z,32.47
2022-12-01T00:58:21.748Z,33.70
2022-12-01T01:00:48.691Z,33.03
2022-12-01T01:03:15.648Z,34.30
2022-12-01T01:05:43.320Z,32.72
2022-12-01T01:08:11.386Z,33.70
2022-12-01T01:10:39.617Z,33.08
2022-12-01T01:13:06.480Z,32.85
2022-12-01T01:15:33.587Z,33.17
2022-12-01T01:18:00.962Z,34.58
2022-12-01T01:20:27.960Z,32.88
2022-12-01T01:22:54.792Z,32.58
2022-12-01T01:25:21.775Z,33.13
2022-12-01T01:27:48.728Z,33.67
2022-12-01T01:30:15.712Z,31.98
2022-12-01T01:32:42.513Z,33.13
2022-12-01T01:35:09.613Z,32.97
2022-12-01T01:37:36.551Z,32.88
2022-12-01T01:40:03.503Z,34.03
2022-12-01T01:42:30.129Z,33.22
2022-12-01T01:44:58.077Z,31.77
2022-12-01T01:47:43.036Z,32.63
2022-12-01T01:50:14.971Z,32.20
2022-12-01T01:53:02.819Z,32.60
2022-12-01T01:55:34.239Z,33.05
2022-12-01T01:58:03.261Z,31.20
2022-12-01T02:00:29.923Z,32.63
2022-12-01T02:02:57.558Z,34.03
2022-12-01T02:05:27.211Z,31.42
2022-12-01T02:07:57.336Z,32.15
2022-12-01T02:10:58.807Z,31.08
2022-12-01T02:13:34.759Z,32.00
2022-12-01T02:16:51.109Z,33.35
2022-12-01T02:20:02.797Z,31.17
2022-12-01T02:23:03.461Z,30.85
2022-12-01T02:26:02.941Z,32.03
2022-12-01T02:28:59.325Z,32.60
2022-12-01T02:31:47.212Z,32.58
2022-12-01T02:34:21.895Z,32.00
2022-12-01T02:36:57.053Z,31.50
2022-12-01T02:39:38.869Z,33.17
2022-12-01T02:42:39.226Z,31.75
2022-12-01T02:45:10.753Z,32.40
2022-12-01T02:47:38.881Z,32.40
2022-12-01T02:50:07.500Z,32.10
2022-12-01T02:52:34.962Z,32.70
2022-12-01T02:55:01.969Z,33.65
2022-12-01T02:57:30.305Z,32.40
2022-12-01T02:59:57.377Z,31.23
2022-12-01T03:02:49.682Z,33.10
2022-12-01T03:05:26.569Z,32.15
2022-12-01T03:08:02.167Z,32.05
2022-12-01T03:10:55.629Z,30.63
2022-12-01T03:13:52.320Z,30.00
2022-12-01T03:16:36.817Z,31.48
2022-12-01T03:21:50.571Z,29.98
2022-12-01T03:24:20.420Z,31.17
2022-12-01T03:26:49.745Z,31.15
2022-12-01T03:29:18.710Z,30.60
2022-12-01T03:31:49.030Z,30.35
2022-12-01T03:34:24.343Z,29.20
2022-12-01T03:36:58.331Z,29.35
2022-12-01T03:39:29.659Z,29.80
2022-12-01T03:42:37.044Z,27.73
2022-12-01T03:45:08.514Z,27.88
2022-12-01T03:47:37.753Z,28.08
2022-12-01T03:50:05.956Z,28.13
2022-12-01T03:53:05.887Z,27.92
2022-12-01T03:55:38.197Z,29.08
2022-12-01T03:58:10.290Z,29.20
2022-12-01T04:00:37.489Z,27.33
2022-12-01T04:03:05.350Z,29.00
2022-12-01T04:05:33.790Z,28.27
2022-12-01T04:08:01.124Z,27.60
2022-12-01T04:10:28.555Z,27.88
2022-12-01T04:12:59.751Z,28.20
2022-12-01T04:15:27.612Z,27.90
2022-12-01T04:17:54.527Z,28.98
2022-12-01T04:20:21.478Z,28.65
2022-12-01T04:22:48.377Z,28.10
2022-12-01T04:25:15.348Z,29.15
2022-12-01T04:27:42.217Z,30.55
2022-12-01T04:30:09.797Z,30.15
2022-12-01T04:32:40.598Z,29.88
2022-12-01T04:35:09.489Z,30.88
2022-12-01T04:37:36.561Z,30.52
2022-12-01T04:40:03.935Z,31.50
2022-12-01T04:42:30.731Z,29.80
2022-12-01T04:44:57.649Z,32.30
2022-12-01T04:47:24.388Z,31.65
2022-12-01T04:49:51.388Z,31.95
2022-12-01T04:52:18.228Z,33.28
2022-12-01T04:54:44.922Z,33.45
2022-12-01T04:57:11.684Z,31.85
2022-12-01T04:59:38.367Z,32.60
2022-12-01T05:02:05.089Z,33.65
2022-12-01T05:04:34.094Z,31.60
2022-12-01T05:07:00.851Z,32.85
2022-12-01T05:09:27.704Z,31.23
2022-12-01T05:11:54.538Z,33.22
2022-12-01T05:14:21.292Z,33.22
2022-12-01T05:16:48.099Z,32.85
2022-12-01T05:19:33.593Z,33.78
2022-12-01T05:22:00.271Z,32.28
2022-12-01T05:24:27.340Z,31.60
2022-12-01T05:26:54.414Z,32.63
2022-12-01T05:29:21.346Z,32.53
2022-12-01T05:31:48.222Z,33.00
2022-12-01T05:34:15.066Z,33.33
2022-12-01T05:36:42.365Z,31.77
2022-12-01T05:39:09.085Z,32.00
2022-12-01T05:41:36.184Z,31.55
2022-12-01T05:44:02.869Z,32.30
2022-12-01T05:46:29.569Z,31.30
2022-12-01T05:48:56.199Z,31.83
2022-12-01T05:51:22.954Z,32.50
2022-12-01T05:53:49.856Z,33.13
2022-12-01T05:56:16.546Z,32.08
2022-12-01T05:58:43.266Z,30.90
2022-12-01T06:01:10.245Z,30.88
2022-12-01T06:03:36.948Z,31.48
2022-12-01T06:06:03.900Z,30.40
2022-12-01T06:08:30.677Z,32.33
2022-12-01T06:10:57.475Z,31.48
2022-12-01T06:13:24.103Z,32.72
2022-12-01T06:16:02.724Z,32.05
2022-12-01T06:18:37.583Z,32.42
2022-12-01T06:21:06.216Z,31.85
2022-12-01T06:23:33.125Z,31.25
2022-12-01T06:25:59.998Z,32.30
2022-12-01T06:28:26.966Z,32.60
2022-12-01T06:30:57.781Z,32.47
2022-12-01T06:33:28.167Z,32.90
2022-12-01T06:36:02.284Z,32.60
2022-12-01T06:40:59.714Z,31.60
2022-12-01T06:43:26.709Z,34.03
2022-12-01T06:45:59.455Z,32.63
2022-12-01T06:48:28.209Z,31.90
2022-12-01T06:50:58.449Z,31.35
2022-12-01T06:53:27.501Z,31.20
2022-12-01T06:55:55.305Z,31.13
2022-12-01T06:58:22.675Z,31.50
2022-12-01T07:00:52.207Z,31.08
2022-12-01T07:03:19.211Z,31.17
2022-12-01T07:05:55.315Z,32.35
2022-12-01T07:08:21.958Z,30.77
2022-12-01T07:11:00.222Z,29.77
2022-12-01T07:13:32.804Z,31.10
2022-12-01T07:16:01.453Z,29.42
2022-12-01T07:18:29.085Z,30.55
2022-12-01T07:21:03.283Z,31.50
2022-12-01T07:23:31.083Z,30.92
2022-12-01T07:26:11.254Z,30.75
2022-12-01T07:28:38.235Z,30.20
2022-12-01T07:31:13.039Z,30.83
2022-12-01T07:33:40.189Z,31.13
2022-12-01T07:36:08.283Z,31.42
2022-12-01T07:38:35.757Z,29.38
2022-12-01T07:41:07.206Z,30.30
2022-12-01T07:43:34.595Z,30.15
2022-12-01T07:46:05.710Z,29.75
2022-12-01T07:48:32.618Z,30.83
2022-12-01T07:50:59.455Z,29.48
2022-12-01T07:53:26.420Z,28.75
2022-12-01T07:55:53.157Z,30.02
2022-12-01T07:58:19.914Z,28.48
2022-12-01T08:00:46.775Z,29.23
2022-12-01T08:03:14.651Z,28.80
2022-12-01T08:05:41.478Z,28.52
2022-12-01T08:08:08.250Z,27.52
2022-12-01T08:10:35.852Z,29.08
2022-12-01T08:13:02.513Z,28.52
2022-12-01T08:15:29.554Z,28.48
2022-12-01T08:17:56.330Z,28.23
2022-12-01T08:20:24.193Z,29.55
2022-12-01T08:22:50.950Z,28.80
2022-12-01T08:25:17.812Z,28.55
2022-12-01T08:27:44.535Z,28.88
2022-12-01T08:30:12.041Z,29.20
2022-12-01T08:32:38.796Z,29.20
2022-12-01T08:35:06.113Z,29.77
2022-12-01T08:37:32.855Z,26.58
2022-12-01T08:39:59.582Z,30.02
2022-12-01T08:42:26.460Z,29.42
2022-12-01T08:44:53.226Z,30.27
2022-12-01T08:47:20.009Z,31.45
2022-12-01T08:49:46.954Z,32.75
2022-12-01T08:52:13.801Z,33.30
2022-12-01T08:54:40.521Z,32.85
2022-12-01T08:57:07.663Z,32.92
2022-12-01T08:59:34.350Z,30.25
2022-12-01T09:02:05.491Z,30.98
2022-12-01T09:04:33.719Z,30.40
2022-12-01T09:07:00.728Z,31.48
2022-12-01T09:09:28.865Z,30.42
2022-12-01T09:11:56.102Z,31.15
2022-12-01T09:14:23.589Z,31.08
2022-12-01T09:16:51.052Z,30.83
2022-12-01T09:19:24.055Z,31.23
2022-12-01T09:24:18.669Z,28.98
2022-12-01T09:26:45.395Z,31.33
2022-12-01T09:29:14.142Z,32.33
2022-12-01T09:31:41.117Z,30.30
2022-12-01T09:34:14.363Z,42.58
2022-12-01T09:36:41.127Z,32.00
2022-12-01T09:39:09.234Z,33.22
2022-12-01T09:41:39.070Z,34.47
2022-12-01T09:44:38.359Z,36.83
2022-12-01T09:47:19.444Z,34.75
2022-12-01T09:49:55.691Z,31.45
2022-12-01T09:52:24.673Z,30.77
2022-12-01T09:54:52.727Z,35.45
2022-12-01T09:57:38.657Z,35.58
2022-12-01T10:00:13.443Z,33.13
2022-12-01T10:02:44.051Z,31.75
2022-12-01T10:05:15.262Z,31.77
2022-12-01T10:07:55.763Z,31.10
2022-12-01T10:10:35.926Z,31.95
2022-12-01T10:13:02.902Z,30.98
2022-12-01T10:16:01.206Z,31.67
2022-12-01T10:18:44.728Z,31.30
2022-12-01T10:21:23.768Z,32.63
2022-12-01T10:24:16.408Z,31.02
2022-12-01T10:26:59.444Z,31.95
2022-12-01T10:29:48.329Z,31.25
2022-12-01T10:32:19.350Z,28.88
2022-12-01T10:34:48.064Z,27.85
2022-12-01T10:37:19.336Z,28.25
2022-12-01T10:39:49.473Z,27.55
2022-12-01T10:42:51.732Z,25.65
2022-12-01T10:45:23.332Z,26.35
2022-12-01T10:48:10.242Z,26.30
2022-12-01T10:50:37.609Z,27.13
2022-12-01T10:53:04.893Z,27.92
2022-12-01T10:55:43.492Z,28.20
2022-12-01T10:58:15.982Z,26.30
2022-12-01T11:00:59.727Z,28.33
2022-12-01T11:06:00.945Z,27.42
2022-12-01T11:08:43.976Z,27.20
2022-12-01T11:11:32.575Z,29.45
2022-12-01T11:14:02.924Z,28.40
2022-12-01T11:16:50.648Z,28.40
2022-12-01T11:19:32.851Z,29.75
2022-12-01T11:22:01.892Z,31.17
2022-12-01T11:24:43.532Z,32.40
2022-12-01T11:27:26.039Z,29.00
2022-12-01T11:29:56.231Z,29.10
2022-12-01T11:32:31.428Z,27.83
2022-12-01T11:35:05.071Z,28.65
2022-12-01T11:37:36.887Z,32.88
2022-12-01T11:40:30.897Z,28.27
2022-12-01T11:43:00.144Z,26.43
2022-12-01T11:45:30.406Z,28.80
2022-12-01T11:48:03.140Z,28.65
2022-12-01T11:50:33.600Z,30.80
2022-12-01T11:53:00.768Z,31.00
2022-12-01T11:55:30.076Z,30.77
2022-12-01T11:58:01.652Z,30.15
2022-12-01T12:00:43.844Z,30.20
2022-12-01T12:03:30.975Z,30.27
2022-12-01T12:06:39.868Z,27.63
2022-12-01T12:09:15.416Z,28.92
2022-12-01T12:11:54.311Z,29.65
2022-12-01T12:14:35.836Z,31.92
2022-12-01T12:17:12.893Z,34.33
2022-12-01T12:20:50.670Z,30.95
2022-12-01T12:23:59.937Z,31.02
2022-12-01T12:26:33.376Z,28.58
2022-12-01T12:33:22.430Z,26.58
2022-12-01T12:36:04.914Z,26.90
2022-12-01T12:38:45.620Z,28.48
2022-12-01T12:41:41.950Z,29.85
2022-12-01T12:44:51.723Z,26.88
2022-12-01T12:47:18.709Z,27.15
2022-12-01T12:50:04.909Z,29.20
2022-12-01T12:52:35.649Z,30.63
2022-12-01T12:55:25.430Z,28.60
2022-12-01T12:58:11.326Z,27.75
2022-12-01T13:00:54.906Z,29.23
2022-12-01T13:03:39.816Z,29.75
2022-12-01T13:06:07.715Z,30.52
2022-12-01T13:08:44.860Z,29.75
2022-12-01T13:11:19.779Z,28.20
2022-12-01T13:14:07.415Z,28.02
2022-12-01T13:16:37.885Z,26.95
2022-12-01T13:19:13.893Z,29.45
2022-12-01T13:21:43.632Z,26.42
2022-12-01T13:24:22.821Z,25.88
2022-12-01T13:26:56.595Z,26.38
2022-12-01T13:29:25.358Z,26.63
2022-12-01T13:31:54.675Z,28.67
2022-12-01T13:34:26.088Z,26.20
2022-12-01T13:36:54.338Z,26.50
2022-12-01T13:39:29.381Z,25.00
2022-12-01T13:42:02.589Z,24.50
2022-12-01T13:44:41.677Z,24.63
2022-12-01T13:47:31.992Z,24.88
2022-12-01T13:50:39.422Z,25.85
2022-12-01T13:53:27.663Z,24.10
2022-12-01T13:56:18.065Z,24.85
2022-12-01T13:58:52.764Z,26.70
2022-12-01T14:01:43.530Z,26.63
2022-12-01T14:04:27.017Z,24.85
2022-12-01T14:07:34.392Z,22.77
2022-12-01T14:10:23.898Z,22.60
2022-12-01T14:12:52.259Z,23.02
2022-12-01T14:15:43.129Z,24.85
2022-12-01T14:18:40.499Z,24.98
2022-12-01T14:21:11.066Z,25.55
2022-12-01T14:23:41.499Z,24.83
2022-12-01T14:26:22.742Z,25.17
2022-12-01T14:29:15.774Z,25.80
2022-12-01T14:31:45.325Z,27.05
2022-12-01T14:34:21.410Z,24.38
2022-12-01T14:37:20.656Z,26.05
2022-12-01T14:40:08.274Z,26.73
2022-12-01T14:43:02.561Z,26.30
2022-12-01T14:45:41.272Z,25.33
2022-12-01T14:48:18.007Z,25.95
2022-12-01T14:50:50.674Z,26.60
2022-12-01T14:53:24.760Z,24.60
2022-12-01T14:56:09.209Z,24.98
2022-12-01T15:01:12.648Z,20.98
2022-12-01T15:03:49.261Z,22.95
2022-12-01T15:06:17.856Z,22.08
2022-12-01T15:08:58.428Z,23.02
2022-12-01T15:11:31.926Z,24.15
2022-12-01T15:13:58.715Z,25.00
2022-12-01T15:16:29.236Z,23.77
2022-12-01T15:18:57.357Z,24.17
2022-12-01T15:21:29.795Z,26.05
2022-12-01T15:24:21.455Z,24.27
2022-12-01T15:26:51.230Z,26.48
2022-12-01T15:29:19.663Z,23.20
2022-12-01T15:31:52.150Z,23.33
2022-12-01T15:34:29.093Z,21.70
2022-12-01T15:36:56.463Z,23.63
2022-12-01T15:39:32.028Z,23.23
2022-12-01T15:41:59.567Z,24.02
2022-12-01T15:44:30.353Z,24.85
2022-12-01T15:46:57.527Z,27.10
2022-12-01T15:49:30.288Z,23.95
2022-12-01T15:52:09.541Z,27.63
2022-12-01T15:54:37.002Z,25.63
2022-12-01T15:57:04.170Z,24.25
2022-12-01T15:59:54.856Z,30.60
2022-12-01T16:02:32.955Z,22.77
2022-12-01T16:05:02.555Z,25.30
2022-12-01T16:08:11.503Z,24.77
2022-12-01T16:10:33.150Z,22.40
2022-12-01T16:13:51.446Z,24.40
2022-12-01T16:16:37.580Z,23.30
2022-12-01T16:19:23.782Z,24.48
2022-12-01T16:21:53.136Z,23.77
2022-12-01T16:24:43.231Z,24.58
2022-12-01T16:27:27.638Z,26.58
2022-12-01T16:32:38.930Z,22.83
2022-12-01T16:35:08.137Z,23.02
2022-12-01T16:37:35.241Z,22.90
2022-12-01T16:40:02.251Z,27.48
2022-12-01T16:42:29.272Z,25.70
2022-12-01T16:44:56.670Z,24.05
2022-12-01T16:47:25.539Z,24.13
2022-12-01T16:49:53.347Z,22.50
2022-12-01T16:55:23.404Z,27.98
2022-12-01T16:57:50.330Z,28.90
2022-12-01T17:00:17.721Z,24.65
2022-12-01T17:02:44.618Z,27.30
2022-12-01T17:05:12.189Z,29.35
2022-12-01T17:07:39.034Z,25.33
2022-12-01T17:10:06.830Z,25.33
2022-12-01T17:12:33.595Z,24.15
2022-12-01T17:15:00.575Z,26.98
2022-12-01T17:17:28.760Z,24.33
2022-12-01T17:19:55.918Z,26.65
2022-12-01T17:22:22.787Z,25.38
2022-12-01T17:24:50.478Z,28.30
2022-12-01T17:27:17.932Z,26.10
2022-12-01T17:29:46.433Z,26.95
2022-12-01T17:32:14.644Z,25.00
2022-12-01T17:34:41.652Z,25.20
2022-12-01T17:37:08.414Z,26.67
2022-12-01T17:39:35.592Z,24.98
2022-12-01T17:42:02.821Z,25.20
2022-12-01T17:44:29.788Z,26.75
2022-12-01T17:46:56.764Z,24.95
2022-12-01T17:49:24.048Z,25.58
2022-12-01T17:51:51.032Z,25.45
2022-12-01T17:54:19.443Z,23.90
2022-12-01T17:56:46.298Z,24.48
2022-12-01T17:59:13.373Z,25.38
2022-12-01T18:01:42.385Z,24.48
2022-12-01T18:04:09.563Z,22.55
2022-12-01T18:06:36.861Z,22.90
2022-12-01T18:09:04.690Z,24.35
2022-12-01T18:11:32.116Z,23.85
2022-12-01T18:14:00.952Z,25.40
2022-12-01T18:16:30.481Z,24.88
2022-12-01T18:18:59.924Z,26.08
2022-12-01T18:21:28.249Z,55.10
2022-12-01T18:24:01.368Z,26.45
2022-12-01T18:26:29.423Z,36.07
2022-12-01T18:29:02.085Z,25.85
2022-12-01T18:31:31.030Z,23.13
2022-12-01T18:34:02.804Z,25.73
2022-12-01T18:36:32.171Z,27.55
2022-12-01T18:39:01.312Z,27.02
2022-12-01T18:41:28.905Z,28.25
2022-12-01T18:43:56.058Z,27.20
2022-12-01T18:46:22.985Z,26.65
2022-12-01T18:48:52.886Z,68.57
2022-12-01T18:51:20.964Z,27.02
2022-12-01T18:53:48.421Z,29.13
2022-12-01T18:56:17.334Z,37.08
2022-12-01T18:58:44.136Z,26.95
2022-12-01T19:01:28.475Z,26.45
2022-12-01T19:03:56.240Z,25.73
2022-12-01T19:06:23.757Z,28.67
2022-12-01T19:08:52.674Z,54.25
2022-12-01T19:11:20.025Z,25.05
2022-12-01T19:13:46.972Z,25.50
2022-12-01T19:16:16.005Z,47.55
2022-12-01T19:18:43.585Z,25.35
2022-12-01T19:21:13.241Z,24.52
2022-12-01T19:23:41.670Z,26.23
2022-12-01T19:26:12.112Z,34.88
2022-12-01T19:28:41.212Z,25.67
2022-12-01T19:31:16.099Z,24.30
2022-12-01T19:33:43.108Z,26.10
2022-12-01T19:36:16.095Z,24.88
2022-12-01T19:38:45.215Z,23.00
2022-12-01T19:41:13.600Z,26.83
2022-12-01T19:43:40.999Z,26.60
2022-12-01T19:46:09.661Z,24.00
2022-12-01T19:48:37.041Z,24.58
2022-12-01T19:51:04.390Z,23.02
2022-12-01T19:53:34.034Z,22.55
2022-12-01T19:56:05.331Z,24.15
2022-12-01T19:58:33.463Z,33.60
2022-12-01T20:01:09.492Z,23.67
2022-12-01T20:03:36.569Z,22.75
2022-12-01T20:06:06.020Z,25.17
2022-12-01T20:08:35.907Z,23.42
2022-12-01T20:11:04.511Z,25.35
2022-12-01T20:13:33.212Z,28.52
2022-12-01T20:16:13.571Z,24.17
2022-12-01T20:18:40.996Z,22.92
2022-12-01T20:21:17.494Z,23.50
2022-12-01T20:23:59.533Z,25.00
2022-12-01T20:26:30.817Z,23.65
2022-12-01T20:29:11.729Z,23.13
2022-12-01T20:31:39.310Z,21.92
2022-12-01T20:34:16.439Z,22.48
2022-12-01T20:36:43.324Z,23.02
2022-12-01T20:39:11.886Z,22.02
2022-12-01T20:41:41.581Z,21.58
2022-12-01T20:44:09.074Z,22.35
2022-12-01T20:46:37.871Z,23.52
2022-12-01T20:49:05.615Z,22.25
2022-12-01T20:51:33.579Z,23.17
2022-12-01T20:54:27.436Z,22.50
2022-12-01T20:56:52.806Z,21.13
2022-12-01T20:59:19.827Z,22.20
2022-12-01T21:01:46.713Z,22.98
2022-12-01T21:04:14.395Z,22.60
2022-12-01T21:06:41.239Z,25.90
2022-12-01T21:09:08.906Z,23.52
2022-12-01T21:12:03.304Z,22.02
2022-12-01T21:14:40.120Z,21.80
2022-12-01T21:17:18.634Z,20.90
2022-12-01T21:19:52.671Z,20.55
2022-12-01T21:22:20.705Z,21.20
2022-12-01T21:24:51.600Z,21.33
2022-12-01T21:27:19.396Z,20.35
2022-12-01T21:29:48.774Z,21.75
2022-12-01T21:32:42.554Z,22.00
2022-12-01T21:35:22.001Z,20.13
2022-12-01T21:37:50.346Z,19.77
2022-12-01T21:40:20.606Z,21.13
2022-12-01T21:42:47.727Z,19.98
2022-12-01T21:45:34.909Z,21.42
2022-12-01T21:48:23.398Z,22.45
2022-12-01T21:50:59.884Z,18.83
2022-12-01T21:53:31.546Z,18.80
2022-12-01T21:55:58.337Z,18.25
2022-12-01T21:58:31.266Z,17.17
2022-12-01T22:00:59.648Z,17.67
2022-12-01T22:03:32.305Z,16.83
2022-12-01T22:06:29.311Z,16.90
2022-12-01T22:08:50.128Z,16.30
2022-12-01T22:11:21.165Z,16.45
2022-12-01T22:13:52.712Z,16.50
2022-12-01T22:16:32.763Z,15.77
2022-12-01T22:19:01.949Z,16.48
2022-12-01T22:21:33.085Z,14.88
2022-12-01T22:24:13.658Z,14.68
2022-12-01T22:26:43.356Z,15.43
2022-12-01T22:29:23.034Z,14.95
2022-12-01T22:31:49.987Z,14.63
2022-12-01T22:34:17.333Z,14.90
2022-12-01T22:36:44.349Z,15.35
2022-12-01T22:39:37.488Z,15.48
2022-12-01T22:42:08.911Z,15.00
2022-12-01T22:44:35.941Z,15.73
2022-12-01T22:47:03.077Z,16.25
2022-12-01T22:49:30.450Z,15.57
2022-12-01T22:52:03.245Z,16.10
2022-12-01T22:54:34.520Z,15.13
2022-12-01T22:57:15.847Z,14.95
2022-12-01T22:59:44.022Z,15.60
2022-12-01T23:02:42.174Z,15.52
2022-12-01T23:05:18.275Z,15.32
2022-12-01T23:07:46.213Z,14.77
2022-12-01T23:10:13.205Z,15.05
2022-12-01T23:12:40.424Z,14.82
2022-12-01T23:15:34.978Z,15.15
2022-12-01T23:20:55.116Z,14.25
2022-12-01T23:23:28.217Z,14.68
2022-12-01T23:25:55.607Z,14.43
2022-12-01T23:28:23.330Z,13.60
2022-12-01T23:30:56.361Z,14.40
2022-12-01T23:33:25.042Z,13.48
2022-12-01T23:35:56.256Z,14.10
2022-12-01T23:38:32.775Z,13.45
2022-12-01T23:41:01.396Z,13.98
2022-12-01T23:43:31.977Z,14.55
2022-12-01T23:46:06.458Z,14.48
2022-12-01T23:48:36.723Z,14.13
2022-12-01T23:51:04.157Z,13.70
2022-12-01T23:53:32.739Z,15.18
2022-12-01T23:56:06.795Z,14.05
